createdAt,value
2023-04-10T00:00:29.315Z,22.27
2023-04-10T00:02:56.391Z,23.03
2023-04-10T00:05:23.002Z,22.93
2023-04-10T00:07:49.539Z,21.90
2023-04-10T00:10:16.168Z,23.13
2023-04-10T00:12:42.734Z,23.53
2023-04-10T00:15:09.682Z,22.93
2023-04-10T00:17:36.285Z,23.63
2023-04-10T00:20:04.125Z,23.67
2023-04-10T00:22:30.602Z,24.20
2023-04-10T00:24:57.081Z,26.10
2023-04-10T00:27:23.591Z,26.00
2023-04-10T00:29:50.287Z,25.07
2023-04-10T00:32:17.015Z,25.70
2023-04-10T00:34:43.622Z,25.40
2023-04-10T00:37:10.134Z,26.07
2023-04-10T00:39:36.583Z,26.37
2023-04-10T00:42:04.078Z,26.37
2023-04-10T00:44:30.840Z,25.77
2023-04-10T00:46:57.290Z,24.53
2023-04-10T00:49:24.012Z,25.83
2023-04-10T00:51:50.613Z,25.00
2023-04-10T00:54:17.140Z,23.10
2023-04-10T00:56:46.051Z,24.57
2023-04-10T00:59:12.622Z,23.33
2023-04-10T01:01:39.299Z,24.80
2023-04-10T01:04:06.047Z,24.33
2023-04-10T01:06:59.568Z,24.20
2023-04-10T01:10:16.129Z,22.77
2023-04-10T01:12:42.646Z,23.97
2023-04-10T01:15:14.390Z,23.60
2023-04-10T01:17:43.818Z,22.63
2023-04-10T01:20:13.814Z,23.00
2023-04-10T01:22:49.282Z,22.27
2023-04-10T01:25:40.383Z,24.57
2023-04-10T01:28:19.001Z,23.07
2023-04-10T01:30:50.313Z,23.10
2023-04-10T01:33:19.025Z,21.43
2023-04-10T01:35:49.978Z,20.87
2023-04-10T01:38:18.373Z,21.03
2023-04-10T01:40:50.115Z,21.50
2023-04-10T01:43:17.241Z,21.53
2023-04-10T01:45:45.034Z,19.87
2023-04-10T01:48:11.684Z,21.97
2023-04-10T01:50:39.765Z,20.73
2023-04-10T01:53:07.283Z,20.17
2023-04-10T01:55:34.293Z,20.63
2023-04-10T01:58:01.454Z,20.50
2023-04-10T02:00:28.207Z,20.07
2023-04-10T02:02:54.935Z,19.53
2023-04-10T02:05:23.133Z,20.60
2023-04-10T02:08:06.266Z,19.53
2023-04-10T02:10:41.893Z,19.87
2023-04-10T02:13:09.455Z,20.60
2023-04-10T02:15:36.615Z,20.73
2023-04-10T02:18:08.299Z,20.60
2023-04-10T02:20:35.845Z,19.37
2023-04-10T02:23:04.229Z,21.57
2023-04-10T02:25:34.023Z,21.23
2023-04-10T02:28:05.471Z,20.43
2023-04-10T02:30:33.139Z,21.83
2023-04-10T02:33:00.015Z,20.97
2023-04-10T02:35:26.662Z,22.37
2023-04-10T02:37:53.264Z,21.70
2023-04-10T02:40:19.780Z,21.80
2023-04-10T02:42:46.269Z,21.47
2023-04-10T02:45:12.775Z,22.73
2023-04-10T02:47:39.390Z,24.20
2023-04-10T02:50:06.258Z,23.53
2023-04-10T02:52:32.750Z,22.90
2023-04-10T02:54:59.251Z,24.43
2023-04-10T02:57:26.202Z,22.63
2023-04-10T02:59:53.478Z,24.87
2023-04-10T03:02:20.049Z,23.80
2023-04-10T03:04:46.673Z,23.40
2023-04-10T03:07:13.215Z,23.70
2023-04-10T03:09:39.799Z,22.67
2023-04-10T03:12:06.356Z,22.50
2023-04-10T03:14:32.928Z,24.20
2023-04-10T03:16:59.413Z,22.97
2023-04-10T03:19:26.722Z,24.73
2023-04-10T03:21:53.666Z,23.10
2023-04-10T03:24:20.751Z,22.40
2023-04-10T03:26:47.522Z,23.97
2023-04-10T03:29:18.834Z,22.77
2023-04-10T03:31:46.123Z,23.13
2023-04-10T03:34:12.707Z,22.07
2023-04-10T03:36:39.455Z,20.83
2023-04-10T03:39:06.077Z,22.20
2023-04-10T03:41:32.595Z,22.30
2023-04-10T03:43:59.200Z,20.07
2023-04-10T03:46:25.838Z,21.80
2023-04-10T03:48:54.243Z,21.03
2023-04-10T03:51:21.358Z,19.87
2023-04-10T03:53:47.842Z,20.83
2023-04-10T03:56:14.442Z,19.13
2023-04-10T03:58:41.363Z,20.03
2023-04-10T04:01:08.139Z,19.93
2023-04-10T04:03:34.818Z,20.70
2023-04-10T04:06:01.559Z,21.07
2023-04-10T04:08:28.193Z,19.70
2023-04-10T04:10:54.967Z,19.57
2023-04-10T04:13:21.732Z,20.40
2023-04-10T04:15:48.318Z,20.33
2023-04-10T04:18:15.630Z,18.90
2023-04-10T04:20:42.212Z,19.90
2023-04-10T04:23:08.879Z,20.33
2023-04-10T04:25:35.865Z,19.80
2023-04-10T04:28:03.687Z,18.53
2023-04-10T04:30:30.273Z,17.67
2023-04-10T04:32:56.867Z,17.97
2023-04-10T04:35:23.563Z,19.17
2023-04-10T04:37:50.142Z,18.57
2023-04-10T04:40:16.791Z,19.67
2023-04-10T04:42:43.369Z,19.93
2023-04-10T04:45:10.354Z,19.93
2023-04-10T04:47:36.961Z,20.03
2023-04-10T04:50:04.935Z,19.50
2023-04-10T04:52:32.194Z,20.47
2023-04-10T04:54:58.835Z,20.03
2023-04-10T04:57:25.375Z,19.83
2023-04-10T04:59:51.939Z,20.20
2023-04-10T05:02:18.938Z,21.13
2023-04-10T05:04:45.807Z,23.20
2023-04-10T05:07:12.308Z,20.43
2023-04-10T05:09:38.901Z,21.10
2023-04-10T05:12:05.999Z,21.40
2023-04-10T05:14:32.563Z,19.73
2023-04-10T05:17:01.067Z,19.10
2023-04-10T05:19:29.443Z,18.10
2023-04-10T05:21:56.412Z,20.07
2023-04-10T05:24:23.032Z,20.60
2023-04-10T05:26:49.520Z,19.60
2023-04-10T05:29:16.090Z,17.03
2023-04-10T05:31:42.734Z,18.60
2023-04-10T05:34:09.328Z,17.63
2023-04-10T05:36:36.753Z,17.10
2023-04-10T05:39:04.368Z,17.60
2023-04-10T05:41:31.012Z,16.80
2023-04-10T05:43:57.519Z,16.43
2023-04-10T05:46:24.077Z,16.57
2023-04-10T05:48:51.052Z,17.10
2023-04-10T05:51:17.757Z,17.00
2023-04-10T05:53:44.657Z,16.43
2023-04-10T05:56:11.481Z,15.87
2023-04-10T05:58:38.250Z,16.33
2023-04-10T06:01:05.312Z,14.90
2023-04-10T06:03:32.214Z,14.87
2023-04-10T06:06:00.738Z,15.37
2023-04-10T06:08:27.361Z,15.30
2023-04-10T06:10:54.509Z,14.60
2023-04-10T06:13:21.737Z,14.10
2023-04-10T06:15:48.651Z,14.43
2023-04-10T06:18:15.588Z,13.73
2023-04-10T06:20:42.176Z,13.10
2023-04-10T06:23:08.944Z,15.00
2023-04-10T06:25:35.627Z,14.30
2023-04-10T06:28:03.450Z,15.30
2023-04-10T06:30:31.187Z,14.10
2023-04-10T06:32:58.069Z,14.47
2023-04-10T06:35:24.798Z,12.57
2023-04-10T06:37:51.435Z,13.23
2023-04-10T06:40:17.948Z,13.47
2023-04-10T06:42:44.630Z,13.40
2023-04-10T06:45:11.608Z,11.13
2023-04-10T06:47:38.286Z,10.63
2023-04-10T06:50:05.349Z,10.27
2023-04-10T06:52:32.585Z,10.63
2023-04-10T06:54:59.774Z,12.37
2023-04-10T06:57:26.547Z,8.20
2023-04-10T06:59:53.115Z,8.17
2023-04-10T07:02:20.172Z,6.93
2023-04-10T07:04:46.940Z,7.93
2023-04-10T07:07:14.333Z,7.20
2023-04-10T07:09:41.300Z,11.53
2023-04-10T07:12:08.263Z,6.23
2023-04-10T07:14:35.929Z,6.63
2023-04-10T07:17:04.034Z,6.33
2023-04-10T07:19:31.359Z,5.87
2023-04-10T07:21:58.035Z,5.60
2023-04-10T07:24:24.842Z,6.30
2023-04-10T07:26:51.492Z,5.90
2023-04-10T07:29:18.712Z,6.20
2023-04-10T07:31:45.388Z,5.90
2023-04-10T07:34:12.486Z,6.77
2023-04-10T07:36:39.149Z,7.30
2023-04-10T07:39:05.947Z,7.00
2023-04-10T07:41:32.814Z,7.00
2023-04-10T07:43:59.523Z,6.60
2023-04-10T07:46:27.599Z,6.73
2023-04-10T07:48:55.794Z,6.70
2023-04-10T07:51:23.281Z,6.00
2023-04-10T07:53:49.952Z,6.83
2023-04-10T07:56:20.777Z,7.27
2023-04-10T07:58:47.880Z,6.77
2023-04-10T08:01:15.216Z,7.40
2023-04-10T08:03:43.869Z,7.20
2023-04-10T08:06:11.565Z,7.03
2023-04-10T08:08:39.643Z,7.43
2023-04-10T08:11:28.690Z,7.47
2023-04-10T08:13:56.696Z,6.83
2023-04-10T08:16:24.921Z,7.10
2023-04-10T08:18:53.074Z,6.73
2023-04-10T08:21:21.764Z,7.87
2023-04-10T08:23:53.637Z,6.47
2023-04-10T08:26:21.350Z,7.00
2023-04-10T08:28:51.808Z,6.60
2023-04-10T08:31:19.208Z,6.60
2023-04-10T08:33:45.924Z,6.77
2023-04-10T08:36:17.059Z,6.47
2023-04-10T08:38:46.249Z,6.57
2023-04-10T08:41:21.662Z,6.40
2023-04-10T08:43:50.059Z,5.70
2023-04-10T08:46:17.157Z,5.00
2023-04-10T08:49:00.971Z,5.23
2023-04-10T08:51:39.888Z,5.43
2023-04-10T08:54:08.658Z,4.97
2023-04-10T08:56:36.366Z,4.73
2023-04-10T08:59:04.506Z,5.03
2023-04-10T09:01:31.571Z,4.93
2023-04-10T09:06:46.065Z,4.40
2023-04-10T09:09:12.895Z,4.10
2023-04-10T09:12:01.055Z,4.27
2023-04-10T09:14:33.958Z,4.20
2023-04-10T09:17:16.749Z,4.70
2023-04-10T09:19:48.019Z,4.20
2023-04-10T09:22:15.468Z,4.23
2023-04-10T09:24:43.802Z,3.77
2023-04-10T09:27:10.694Z,3.83
2023-04-10T09:29:45.701Z,4.70
2023-04-10T09:32:12.677Z,4.23
2023-04-10T09:34:56.958Z,4.20
2023-04-10T09:37:31.470Z,3.60
2023-04-10T09:39:58.094Z,3.90
2023-04-10T09:42:38.863Z,4.40
2023-04-10T09:45:05.900Z,3.77
2023-04-10T09:47:33.190Z,4.07
2023-04-10T09:50:01.226Z,3.90
2023-04-10T09:52:30.761Z,3.83
2023-04-10T09:55:03.065Z,3.73
2023-04-10T09:57:30.992Z,3.70
2023-04-10T10:00:00.248Z,4.00
2023-04-10T10:02:29.805Z,3.63
2023-04-10T10:05:00.824Z,4.10
2023-04-10T10:07:27.989Z,3.20
2023-04-10T10:09:54.593Z,3.60
2023-04-10T10:12:34.604Z,3.33
2023-04-10T10:15:23.540Z,3.17
2023-04-10T10:17:54.222Z,3.30
2023-04-10T10:20:22.485Z,3.40
2023-04-10T10:22:50.367Z,3.67
2023-04-10T10:25:19.544Z,3.60
2023-04-10T10:27:46.806Z,3.60
2023-04-10T10:30:28.144Z,3.63
2023-04-10T10:32:56.366Z,3.13
2023-04-10T10:35:25.440Z,4.03
2023-04-10T10:37:53.757Z,3.27
2023-04-10T10:40:27.560Z,3.83
2023-04-10T10:43:01.627Z,4.03
2023-04-10T10:45:35.359Z,4.33
2023-04-10T10:48:02.050Z,3.73
2023-04-10T10:50:53.527Z,3.47
2023-04-10T10:53:42.295Z,3.40
2023-04-10T10:56:24.091Z,3.00
2023-04-10T10:58:56.053Z,2.60
2023-04-10T11:01:23.369Z,3.20
2023-04-10T11:03:51.186Z,2.73
2023-04-10T11:06:19.644Z,2.90
2023-04-10T11:08:47.505Z,2.77
2023-04-10T11:11:23.870Z,2.53
2023-04-10T11:13:52.015Z,2.40
2023-04-10T11:16:23.171Z,2.50
2023-04-10T11:18:59.395Z,2.67
2023-04-10T11:21:37.392Z,2.80
2023-04-10T11:24:05.370Z,2.50
2023-04-10T11:26:43.756Z,2.80
2023-04-10T11:29:16.112Z,2.00
2023-04-10T11:31:47.511Z,2.00
2023-04-10T11:34:15.806Z,2.10
2023-04-10T11:36:44.862Z,2.30
2023-04-10T11:39:20.027Z,2.17
2023-04-10T11:41:51.092Z,2.57
2023-04-10T11:44:22.716Z,2.50
2023-04-10T11:46:51.418Z,2.37
2023-04-10T11:49:21.383Z,2.23
2023-04-10T11:51:49.055Z,2.57
2023-04-10T11:54:20.660Z,2.43
2023-04-10T11:57:09.160Z,2.77
2023-04-10T11:59:36.070Z,2.40
2023-04-10T12:02:17.425Z,2.70
2023-04-10T12:04:44.759Z,3.07
2023-04-10T12:07:11.869Z,2.83
2023-04-10T12:09:38.718Z,2.70
2023-04-10T12:12:06.763Z,2.87
2023-04-10T12:14:35.286Z,2.67
2023-04-10T12:17:04.449Z,2.63
2023-04-10T12:19:31.475Z,2.23
2023-04-10T12:21:59.114Z,2.37
2023-04-10T12:24:46.062Z,2.73
2023-04-10T12:27:26.585Z,2.43
2023-04-10T12:29:58.226Z,2.43
2023-04-10T12:32:25.842Z,2.53
2023-04-10T12:35:01.709Z,2.60
2023-04-10T12:37:51.291Z,2.57
2023-04-10T12:40:20.831Z,2.73
2023-04-10T12:42:47.678Z,2.57
2023-04-10T12:45:15.245Z,2.10
2023-04-10T12:47:48.487Z,2.80
2023-04-10T12:50:16.958Z,2.20
2023-04-10T12:52:45.915Z,2.10
2023-04-10T12:55:17.483Z,2.70
2023-04-10T12:57:46.179Z,2.30
2023-04-10T13:00:18.394Z,2.33
2023-04-10T13:02:46.223Z,2.00
2023-04-10T13:05:13.066Z,2.77
2023-04-10T13:07:40.935Z,2.83
2023-04-10T13:10:08.422Z,2.20
2023-04-10T13:12:36.336Z,2.90
2023-04-10T13:15:04.134Z,2.73
2023-04-10T13:17:30.785Z,2.60
2023-04-10T13:19:57.284Z,2.47
2023-04-10T13:22:23.938Z,2.80
2023-04-10T13:24:50.491Z,2.90
2023-04-10T13:27:17.132Z,2.30
2023-04-10T13:29:44.198Z,2.50
2023-04-10T13:32:10.760Z,2.50
2023-04-10T13:34:37.629Z,2.30
2023-04-10T13:37:05.027Z,2.43
2023-04-10T13:39:32.370Z,2.60
2023-04-10T13:41:59.502Z,2.50
2023-04-10T13:44:26.141Z,2.37
2023-04-10T13:46:52.985Z,2.83
2023-04-10T13:49:20.522Z,2.20
2023-04-10T13:51:47.867Z,2.30
2023-04-10T13:54:16.926Z,2.33
2023-04-10T13:56:44.696Z,2.23
2023-04-10T13:59:11.676Z,2.40
2023-04-10T14:01:38.301Z,2.30
2023-04-10T14:04:05.107Z,2.23
2023-04-10T14:06:31.992Z,2.30
2023-04-10T14:08:58.597Z,2.30
2023-04-10T14:11:25.958Z,2.17
2023-04-10T14:13:53.038Z,2.80
2023-04-10T14:16:19.853Z,2.97
2023-04-10T14:18:46.631Z,2.80
2023-04-10T14:21:13.879Z,2.30
2023-04-10T14:23:41.949Z,2.70
2023-04-10T14:26:08.789Z,2.77
2023-04-10T14:28:35.641Z,2.60
2023-04-10T14:31:03.536Z,2.40
2023-04-10T14:33:30.053Z,3.00
2023-04-10T14:35:56.997Z,2.77
2023-04-10T14:38:23.463Z,2.97
2023-04-10T14:40:50.696Z,2.70
2023-04-10T14:43:17.613Z,3.10
2023-04-10T14:45:44.243Z,3.30
2023-04-10T14:48:12.653Z,3.03
2023-04-10T14:50:39.947Z,3.10
2023-04-10T14:53:09.521Z,3.00
2023-04-10T14:55:36.954Z,2.63
2023-04-10T14:58:04.797Z,3.00
2023-04-10T15:00:32.358Z,3.20
2023-04-10T15:02:59.144Z,3.40
2023-04-10T15:05:26.529Z,3.50
2023-04-10T15:07:53.426Z,3.17
2023-04-10T15:10:20.284Z,3.67
2023-04-10T15:12:47.165Z,4.20
2023-04-10T15:15:13.829Z,3.00
2023-04-10T15:17:41.318Z,2.70
2023-04-10T15:20:08.440Z,3.17
2023-04-10T15:22:35.846Z,2.57
2023-04-10T15:25:03.348Z,2.50
2023-04-10T15:27:29.911Z,2.50
2023-04-10T15:29:56.473Z,2.63
2023-04-10T15:32:23.097Z,2.47
2023-04-10T15:34:49.979Z,2.53
2023-04-10T15:37:16.504Z,2.90
2023-04-10T15:39:43.013Z,2.63
2023-04-10T15:42:09.785Z,2.57
2023-04-10T15:44:36.348Z,2.40
2023-04-10T15:47:03.472Z,2.47
2023-04-10T15:49:37.916Z,2.50
2023-04-10T15:52:06.413Z,2.83
2023-04-10T15:54:33.937Z,2.90
2023-04-10T15:57:01.849Z,2.83
2023-04-10T15:59:28.481Z,2.60
2023-04-10T16:01:55.448Z,2.47
2023-04-10T16:04:22.651Z,2.80
2023-04-10T16:06:49.293Z,3.30
2023-04-10T16:09:25.556Z,2.90
2023-04-10T16:11:53.636Z,2.83
2023-04-10T16:14:20.809Z,3.03
2023-04-10T16:16:47.381Z,2.77
2023-04-10T16:19:13.983Z,3.03
2023-04-10T16:21:40.812Z,3.07
2023-04-10T16:24:07.547Z,2.70
2023-04-10T16:26:35.475Z,3.23
2023-04-10T16:29:03.222Z,2.50
2023-04-10T16:31:29.810Z,1.93
2023-04-10T16:33:56.724Z,1.83
2023-04-10T16:36:23.789Z,1.60
2023-04-10T16:38:50.472Z,2.30
2023-04-10T16:41:18.548Z,2.07
2023-04-10T16:43:45.374Z,2.20
2023-04-10T16:46:12.142Z,2.00
2023-04-10T16:48:38.749Z,2.40
2023-04-10T16:51:06.713Z,2.40
2023-04-10T16:53:35.855Z,2.17
2023-04-10T16:56:05.132Z,2.60
2023-04-10T16:58:40.997Z,2.50
2023-04-10T17:01:14.871Z,2.30
2023-04-10T17:03:41.859Z,3.20
2023-04-10T17:06:08.474Z,3.10
2023-04-10T17:08:34.985Z,2.30
2023-04-10T17:11:01.706Z,2.53
2023-04-10T17:13:28.205Z,3.10
2023-04-10T17:15:54.744Z,2.33
2023-04-10T17:18:22.806Z,2.50
2023-04-10T17:20:49.447Z,2.70
2023-04-10T17:23:16.077Z,2.70
2023-04-10T17:25:42.846Z,3.00
2023-04-10T17:28:09.477Z,3.07
2023-04-10T17:30:36.048Z,2.70
2023-04-10T17:33:03.452Z,2.80
2023-04-10T17:35:30.007Z,3.07
2023-04-10T17:37:56.597Z,3.33
2023-04-10T17:40:25.121Z,3.10
2023-04-10T17:42:51.760Z,3.03
2023-04-10T17:45:18.447Z,2.73
2023-04-10T17:47:45.378Z,3.50
2023-04-10T17:50:11.919Z,3.10
2023-04-10T17:52:38.553Z,3.00
2023-04-10T17:55:06.947Z,2.80
2023-04-10T17:57:33.585Z,3.33
2023-04-10T18:00:00.280Z,3.53
2023-04-10T18:02:27.011Z,3.07
2023-04-10T18:04:53.601Z,3.13
2023-04-10T18:07:20.240Z,3.50
2023-04-10T18:09:46.819Z,3.23
2023-04-10T18:12:13.418Z,3.47
2023-04-10T18:14:40.150Z,3.67
2023-04-10T18:17:06.822Z,3.50
2023-04-10T18:19:33.420Z,3.83
2023-04-10T18:21:59.891Z,4.27
2023-04-10T18:24:26.732Z,4.27
2023-04-10T18:26:53.250Z,4.40
2023-04-10T18:29:19.847Z,4.63
2023-04-10T18:31:46.514Z,4.93
2023-04-10T18:34:13.258Z,4.17
2023-04-10T18:36:40.134Z,4.30
2023-04-10T18:39:06.884Z,5.00
2023-04-10T18:41:33.556Z,4.50
2023-04-10T18:44:05.074Z,4.80
2023-04-10T18:46:33.075Z,5.03
2023-04-10T18:49:01.113Z,5.43
2023-04-10T18:51:28.220Z,5.90
2023-04-10T18:53:55.429Z,5.30
2023-04-10T18:56:22.359Z,5.13
2023-04-10T18:58:50.098Z,5.23
2023-04-10T19:01:17.736Z,5.47
2023-04-10T19:03:52.654Z,5.23
2023-04-10T19:06:23.870Z,5.20
2023-04-10T19:08:51.239Z,5.33
2023-04-10T19:11:18.689Z,5.40
2023-04-10T19:13:45.370Z,5.90
2023-04-10T19:16:14.690Z,6.20
2023-04-10T19:18:41.461Z,6.67
2023-04-10T19:21:08.033Z,6.47
2023-04-10T19:23:34.957Z,6.27
2023-04-10T19:26:01.562Z,6.17
2023-04-10T19:28:29.353Z,6.63
2023-04-10T19:30:56.084Z,6.57
2023-04-10T19:33:22.696Z,6.97
2023-04-10T19:35:49.373Z,6.87
2023-04-10T19:38:15.993Z,6.77
2023-04-10T19:40:44.424Z,7.03
2023-04-10T19:43:11.183Z,6.87
2023-04-10T19:45:38.085Z,6.77
2023-04-10T19:48:05.135Z,7.37
2023-04-10T19:50:31.939Z,7.23
2023-04-10T19:52:59.564Z,7.97
2023-04-10T19:55:26.607Z,7.80
2023-04-10T19:57:53.217Z,8.10
2023-04-10T20:00:19.718Z,8.13
2023-04-10T20:02:46.440Z,7.97
2023-04-10T20:05:13.158Z,7.73
2023-04-10T20:07:40.034Z,8.83
2023-04-10T20:10:07.165Z,8.03
2023-04-10T20:12:33.773Z,8.40
2023-04-10T20:15:01.403Z,7.97
2023-04-10T20:17:28.254Z,9.00
2023-04-10T20:19:55.196Z,8.97
2023-04-10T20:22:21.828Z,8.27
2023-04-10T20:24:48.287Z,8.40
2023-04-10T20:27:15.560Z,8.73
2023-04-10T20:29:42.140Z,9.87
2023-04-10T20:32:09.639Z,8.70
2023-04-10T20:34:36.871Z,9.73
2023-04-10T20:37:05.505Z,9.97
2023-04-10T20:39:34.732Z,9.07
2023-04-10T20:42:01.546Z,10.20
2023-04-10T20:44:28.051Z,9.47
2023-04-10T20:46:54.693Z,8.73
2023-04-10T20:49:21.561Z,9.97
2023-04-10T20:51:48.166Z,10.50
2023-04-10T20:54:15.065Z,10.57
2023-04-10T20:56:43.969Z,10.90
2023-04-10T20:59:11.272Z,9.80
2023-04-10T21:01:38.415Z,11.03
2023-04-10T21:04:05.680Z,9.87
2023-04-10T21:06:33.728Z,9.53
2023-04-10T21:09:00.829Z,10.87
2023-04-10T21:11:27.735Z,10.27
2023-04-10T21:13:54.413Z,10.13
2023-04-10T21:16:21.127Z,10.00
2023-04-10T21:18:47.933Z,9.53
2023-04-10T21:21:14.584Z,9.77
2023-04-10T21:23:41.157Z,10.80
2023-04-10T21:26:07.836Z,11.87
2023-04-10T21:28:34.409Z,11.10
2023-04-10T21:31:01.037Z,10.13
2023-04-10T21:33:27.594Z,9.63
2023-04-10T21:35:54.086Z,10.77
2023-04-10T21:38:20.724Z,10.53
2023-04-10T21:40:51.040Z,11.23
2023-04-10T21:43:17.656Z,10.50
2023-04-10T21:45:44.107Z,10.57
2023-04-10T21:48:10.694Z,11.37
2023-04-10T21:50:37.244Z,11.07
2023-04-10T21:53:04.259Z,10.87
2023-04-10T21:55:30.744Z,10.33
2023-04-10T21:57:57.487Z,11.73
2023-04-10T22:00:42.049Z,12.67
2023-04-10T22:03:20.671Z,12.07
2023-04-10T22:05:48.815Z,11.67
2023-04-10T22:08:15.963Z,11.07
2023-04-10T22:10:45.374Z,11.37
2023-04-10T22:13:19.802Z,11.50
2023-04-10T22:15:54.406Z,12.13
2023-04-10T22:18:20.930Z,12.30
2023-04-10T22:20:47.417Z,12.80
2023-04-10T22:23:13.890Z,12.23
2023-04-10T22:25:40.560Z,12.50
2023-04-10T22:28:07.042Z,11.40
2023-04-10T22:30:34.340Z,11.40
2023-04-10T22:33:01.130Z,12.53
2023-04-10T22:35:27.777Z,12.43
2023-04-10T22:37:54.370Z,12.20
2023-04-10T22:40:20.985Z,12.33
2023-04-10T22:42:48.451Z,12.93
2023-04-10T22:45:15.559Z,13.50
2023-04-10T22:47:42.200Z,13.33
2023-04-10T22:50:08.966Z,12.50
2023-04-10T22:52:35.998Z,13.20
2023-04-10T22:55:04.239Z,13.10
2023-04-10T22:57:30.886Z,13.23
2023-04-10T22:59:59.344Z,13.60
2023-04-10T23:02:27.772Z,13.63
2023-04-10T23:04:54.523Z,14.43
2023-04-10T23:07:21.161Z,12.43
2023-04-10T23:09:47.743Z,11.77
2023-04-10T23:12:14.252Z,12.83
2023-04-10T23:14:40.860Z,13.83
2023-04-10T23:17:07.331Z,13.40
2023-04-10T23:19:33.861Z,12.97
2023-04-10T23:22:00.466Z,12.60
2023-04-10T23:24:27.078Z,12.30
2023-04-10T23:26:53.556Z,12.10
2023-04-10T23:29:20.059Z,11.30
2023-04-10T23:31:46.694Z,13.40
2023-04-10T23:34:13.302Z,11.70
2023-04-10T23:36:39.840Z,12.33
2023-04-10T23:39:06.422Z,14.07
2023-04-10T23:41:33.401Z,12.70
2023-04-10T23:43:59.847Z,12.57
2023-04-10T23:46:26.421Z,12.03
2023-04-10T23:48:54.702Z,12.17
2023-04-10T23:51:21.388Z,11.83
2023-04-10T23:53:47.865Z,13.03
2023-04-10T23:56:14.620Z,13.83
2023-04-10T23:58:41.093Z,12.57
